createdAt,value
2023-04-22T00:00:51.761Z,9.06
2023-04-22T00:03:56.911Z,9.01
2023-04-22T00:07:01.997Z,8.92
2023-04-22T00:10:08.824Z,9.00
2023-04-22T00:13:13.819Z,8.91
2023-04-22T00:16:18.552Z,8.90
2023-04-22T00:19:23.351Z,8.79
2023-04-22T00:22:27.988Z,8.78
2023-04-22T00:25:34.091Z,8.84
2023-04-22T00:28:38.776Z,8.75
2023-04-22T00:31:43.637Z,8.70
2023-04-22T00:34:48.436Z,8.76
2023-04-22T00:37:53.337Z,8.71
2023-04-22T00:40:59.422Z,8.72
2023-04-22T00:44:04.309Z,8.71
2023-04-22T00:47:09.424Z,8.54
2023-04-22T00:50:14.368Z,8.60
2023-04-22T00:53:19.106Z,8.53
2023-04-22T00:56:25.347Z,8.59
2023-04-22T00:59:29.985Z,8.52
2023-04-22T01:05:54.290Z,8.52
2023-04-22T01:08:59.062Z,8.42
2023-04-22T01:12:05.158Z,8.39
2023-04-22T01:15:10.892Z,8.41
2023-04-22T01:18:15.690Z,8.40
2023-04-22T01:21:20.430Z,8.34
2023-04-22T01:24:26.601Z,8.37
2023-04-22T01:27:31.316Z,8.40
2023-04-22T01:30:36.025Z,8.30
2023-04-22T01:33:40.773Z,8.34
2023-04-22T01:36:45.497Z,8.31
2023-04-22T01:39:52.479Z,8.25
2023-04-22T01:42:57.161Z,8.29
2023-04-22T01:46:02.093Z,8.20
2023-04-22T01:49:06.845Z,8.23
2023-04-22T01:52:12.536Z,8.24
2023-04-22T01:55:18.572Z,8.23
2023-04-22T01:58:23.388Z,8.19
2023-04-22T02:01:28.099Z,8.13
2023-04-22T02:04:32.977Z,8.04
2023-04-22T02:07:38.687Z,7.86
2023-04-22T02:10:45.027Z,8.01
2023-04-22T02:13:50.006Z,7.85
2023-04-22T02:16:54.815Z,7.81
2023-04-22T02:19:59.614Z,7.66
2023-04-22T02:23:04.474Z,7.73
2023-04-22T02:26:11.491Z,7.60
2023-04-22T02:29:16.275Z,7.66
2023-04-22T02:32:20.933Z,7.55
2023-04-22T02:35:25.763Z,7.52
2023-04-22T02:38:30.427Z,7.52
2023-04-22T02:41:36.989Z,7.65
2023-04-22T02:44:42.000Z,7.36
2023-04-22T02:47:46.963Z,7.43
2023-04-22T02:50:52.775Z,7.48
2023-04-22T02:53:57.489Z,7.57
2023-04-22T02:57:03.615Z,7.55
2023-04-22T03:00:11.698Z,7.44
2023-04-22T03:03:16.540Z,7.40
2023-04-22T03:06:21.886Z,7.49
2023-04-22T03:09:27.104Z,7.46
2023-04-22T03:12:33.253Z,7.41
2023-04-22T03:15:38.093Z,7.35
2023-04-22T03:18:43.055Z,7.31
2023-04-22T03:21:48.565Z,7.43
2023-04-22T03:24:53.429Z,7.49
2023-04-22T03:27:59.757Z,7.39
2023-04-22T03:31:04.584Z,7.41
2023-04-22T03:34:09.254Z,7.41
2023-04-22T03:37:14.689Z,7.30
2023-04-22T03:40:19.421Z,7.36
2023-04-22T03:43:25.797Z,7.31
2023-04-22T03:46:39.356Z,7.30
2023-04-22T03:49:55.508Z,7.26
2023-04-22T03:53:01.017Z,7.28
2023-04-22T03:56:06.239Z,7.27
2023-04-22T03:59:16.361Z,7.33
2023-04-22T04:02:21.748Z,7.31
2023-04-22T04:05:27.015Z,7.33
2023-04-22T04:08:32.347Z,7.39
2023-04-22T04:11:38.050Z,7.31
2023-04-22T04:14:44.371Z,7.43
2023-04-22T04:17:52.749Z,7.52
2023-04-22T04:20:58.822Z,7.49
2023-04-22T04:24:07.348Z,7.47
2023-04-22T04:27:17.530Z,7.59
2023-04-22T04:30:33.028Z,7.60
2023-04-22T04:33:39.540Z,7.56
2023-04-22T04:36:46.555Z,7.69
2023-04-22T04:39:59.348Z,7.76
2023-04-22T04:43:13.029Z,7.85
2023-04-22T04:46:29.576Z,7.75
2023-04-22T04:49:40.266Z,7.80
2023-04-22T04:52:46.380Z,7.91
2023-04-22T04:55:51.543Z,8.06
2023-04-22T04:59:00.243Z,8.13
2023-04-22T05:02:07.838Z,8.09
2023-04-22T05:05:13.831Z,8.13
2023-04-22T05:08:20.731Z,8.20
2023-04-22T05:11:26.716Z,8.26
2023-04-22T05:14:33.298Z,8.24
2023-04-22T05:17:39.560Z,8.33
2023-04-22T05:20:44.487Z,8.43
2023-04-22T05:23:49.280Z,8.52
2023-04-22T05:26:54.019Z,8.50
2023-04-22T05:29:58.840Z,8.64
2023-04-22T05:33:10.703Z,8.72
2023-04-22T05:36:15.504Z,8.79
2023-04-22T05:39:21.909Z,8.91
2023-04-22T05:42:27.763Z,8.98
2023-04-22T05:45:32.541Z,9.03
2023-04-22T05:48:39.580Z,9.18
2023-04-22T05:51:48.064Z,9.24
2023-04-22T05:54:55.839Z,9.34
2023-04-22T05:58:00.878Z,9.47
2023-04-22T06:01:17.123Z,9.58
2023-04-22T06:04:37.156Z,9.66
2023-04-22T06:07:43.013Z,9.88
2023-04-22T06:10:47.682Z,9.98
2023-04-22T06:13:52.896Z,10.05
2023-04-22T06:16:58.109Z,10.17
2023-04-22T06:20:04.527Z,10.24
2023-04-22T06:23:09.633Z,10.43
2023-04-22T06:26:14.432Z,10.70
2023-04-22T06:29:19.173Z,10.80
2023-04-22T06:32:25.908Z,11.13
2023-04-22T06:35:32.064Z,11.41
2023-04-22T06:38:36.840Z,11.68
2023-04-22T06:42:01.572Z,12.15
2023-04-22T06:45:23.752Z,12.47
2023-04-22T06:48:48.486Z,12.46
2023-04-22T06:52:01.864Z,12.74
2023-04-22T06:55:07.047Z,12.92
2023-04-22T06:58:12.608Z,13.21
2023-04-22T07:01:18.031Z,13.15
2023-04-22T07:04:24.053Z,13.39
2023-04-22T07:07:30.219Z,13.46
2023-04-22T07:10:35.292Z,13.66
2023-04-22T07:14:06.354Z,13.83
2023-04-22T07:17:11.428Z,13.94
2023-04-22T07:20:16.617Z,13.87
2023-04-22T07:23:23.325Z,14.01
2023-04-22T07:26:28.104Z,13.86
2023-04-22T07:29:32.868Z,13.82
2023-04-22T07:32:37.548Z,14.01
2023-04-22T07:35:42.282Z,14.05
2023-04-22T07:38:48.537Z,14.15
2023-04-22T07:41:53.312Z,14.15
2023-04-22T07:44:57.970Z,14.22
2023-04-22T07:48:02.797Z,14.30
2023-04-22T07:51:07.582Z,14.36
2023-04-22T07:54:14.005Z,14.70
2023-04-22T07:57:21.893Z,14.98
2023-04-22T08:00:27.102Z,15.13
2023-04-22T08:03:32.124Z,15.06
2023-04-22T08:06:36.922Z,15.31
2023-04-22T08:09:43.003Z,15.55
2023-04-22T08:12:47.800Z,15.46
2023-04-22T08:15:52.573Z,15.59
2023-04-22T08:18:57.900Z,15.50
2023-04-22T08:22:02.870Z,15.51
2023-04-22T08:25:09.827Z,15.60
2023-04-22T08:28:14.522Z,15.51
2023-04-22T08:31:19.343Z,15.66
2023-04-22T08:34:24.931Z,15.79
2023-04-22T08:37:30.776Z,15.86
2023-04-22T08:40:36.972Z,15.88
2023-04-22T08:43:41.676Z,15.92
2023-04-22T08:46:47.241Z,16.15
2023-04-22T08:49:52.149Z,16.04
2023-04-22T08:52:56.947Z,16.27
2023-04-22T08:56:02.998Z,16.21
2023-04-22T08:59:07.822Z,16.24
2023-04-22T09:02:15.117Z,16.36
2023-04-22T09:05:19.856Z,16.33
2023-04-22T09:08:24.647Z,16.40
2023-04-22T09:11:30.920Z,16.33
2023-04-22T09:14:35.885Z,16.45
2023-04-22T09:17:41.478Z,16.45
2023-04-22T09:20:47.485Z,16.54
2023-04-22T09:23:53.049Z,16.70
2023-04-22T09:26:59.267Z,16.62
2023-04-22T09:30:05.579Z,16.62
2023-04-22T09:33:15.794Z,16.88
2023-04-22T09:36:23.218Z,16.71
2023-04-22T09:39:27.945Z,16.93
2023-04-22T09:42:34.113Z,16.91
2023-04-22T09:45:39.280Z,16.89
2023-04-22T09:48:44.018Z,17.07
2023-04-22T09:51:49.903Z,17.12
2023-04-22T09:54:54.926Z,17.10
2023-04-22T09:58:05.608Z,16.96
2023-04-22T10:01:11.531Z,17.10
2023-04-22T10:04:18.208Z,17.30
2023-04-22T10:07:22.951Z,17.34
2023-04-22T10:10:27.623Z,17.39
2023-04-22T10:13:33.806Z,17.30
2023-04-22T10:16:38.974Z,17.24
2023-04-22T10:19:43.735Z,17.32
2023-04-22T10:22:48.465Z,17.42
2023-04-22T10:25:55.319Z,17.76
2023-04-22T10:29:01.522Z,17.66
2023-04-22T10:32:08.484Z,18.04
2023-04-22T10:35:16.439Z,17.94
2023-04-22T10:38:21.107Z,17.93
2023-04-22T10:41:26.770Z,18.03
2023-04-22T10:44:46.229Z,17.98
2023-04-22T10:47:50.973Z,18.41
2023-04-22T10:50:55.733Z,18.17
2023-04-22T10:54:02.716Z,18.19
2023-04-22T10:57:08.168Z,18.20
2023-04-22T11:00:35.384Z,18.18
2023-04-22T11:03:46.849Z,18.20
2023-04-22T11:07:07.280Z,18.43
2023-04-22T11:10:17.122Z,18.40
2023-04-22T11:13:22.557Z,18.43
2023-04-22T11:16:28.685Z,18.68
2023-04-22T11:19:33.460Z,18.59
2023-04-22T11:22:38.755Z,18.51
2023-04-22T11:25:43.467Z,18.55
2023-04-22T11:28:48.944Z,18.65
2023-04-22T11:31:55.214Z,18.70
2023-04-22T11:34:59.980Z,18.69
2023-04-22T11:38:05.719Z,18.50
2023-04-22T11:41:12.488Z,18.65
2023-04-22T11:44:17.271Z,18.84
2023-04-22T11:47:23.410Z,18.86
2023-04-22T11:50:28.519Z,19.00
2023-04-22T11:53:33.162Z,18.90
2023-04-22T11:56:38.522Z,19.05
2023-04-22T11:59:43.449Z,19.03
2023-04-22T12:02:57.620Z,19.19
2023-04-22T12:06:02.883Z,19.09
2023-04-22T12:09:08.756Z,19.18
2023-04-22T12:12:14.162Z,19.12
2023-04-22T12:15:18.892Z,19.23
2023-04-22T12:18:31.310Z,19.25
2023-04-22T12:21:36.289Z,19.46
2023-04-22T12:24:45.422Z,19.64
2023-04-22T12:27:50.134Z,19.43
2023-04-22T12:30:54.989Z,19.46
2023-04-22T12:34:02.151Z,19.59
2023-04-22T12:37:06.949Z,19.65
2023-04-22T12:40:15.003Z,19.53
2023-04-22T12:43:19.910Z,19.65
2023-04-22T12:46:24.686Z,19.63
2023-04-22T12:49:30.916Z,19.56
2023-04-22T12:52:36.155Z,19.67
2023-04-22T12:55:42.548Z,19.77
2023-04-22T12:58:49.120Z,19.77
2023-04-22T13:01:54.929Z,19.92
2023-04-22T13:05:01.285Z,19.76
2023-04-22T13:08:07.530Z,19.75
2023-04-22T13:11:14.326Z,19.72
2023-04-22T13:14:19.166Z,19.63
2023-04-22T13:17:23.944Z,19.76
2023-04-22T13:20:30.421Z,19.70
2023-04-22T13:23:35.418Z,19.61
2023-04-22T13:26:40.718Z,19.63
2023-04-22T13:29:45.579Z,19.70
2023-04-22T13:32:50.281Z,19.71
2023-04-22T13:35:56.417Z,19.73
2023-04-22T13:39:01.389Z,19.69
2023-04-22T13:42:06.280Z,19.73
2023-04-22T13:45:11.720Z,19.76
2023-04-22T13:48:16.513Z,19.76
2023-04-22T13:51:22.632Z,19.77
2023-04-22T13:54:28.141Z,19.67
2023-04-22T13:57:32.848Z,19.60
2023-04-22T14:00:37.608Z,19.64
2023-04-22T14:03:42.324Z,19.70
2023-04-22T14:06:48.524Z,19.74
2023-04-22T14:09:53.278Z,19.82
2023-04-22T14:12:58.051Z,19.72
2023-04-22T14:16:03.739Z,19.63
2023-04-22T14:19:10.216Z,19.59
2023-04-22T14:22:16.262Z,19.65
2023-04-22T14:25:21.055Z,19.55
2023-04-22T14:28:25.906Z,19.55
2023-04-22T14:31:30.634Z,19.44
2023-04-22T14:34:35.283Z,19.29
2023-04-22T14:37:43.516Z,19.13
2023-04-22T14:40:48.214Z,18.99
2023-04-22T14:43:53.024Z,19.06
2023-04-22T14:46:57.720Z,18.95
2023-04-22T14:50:02.623Z,19.03
2023-04-22T14:53:08.755Z,19.01
2023-04-22T14:56:14.290Z,18.85
2023-04-22T14:59:18.988Z,18.88
2023-04-22T15:02:23.890Z,18.87
2023-04-22T15:05:28.755Z,18.82
2023-04-22T15:08:34.838Z,18.82
2023-04-22T15:11:39.752Z,18.77
2023-04-22T15:14:44.593Z,18.71
2023-04-22T15:17:49.345Z,18.55
2023-04-22T15:20:54.052Z,18.57
2023-04-22T15:24:00.117Z,18.59
2023-04-22T15:27:04.982Z,18.41
2023-04-22T15:30:11.131Z,18.43
2023-04-22T15:33:16.636Z,18.39
2023-04-22T15:36:22.047Z,18.29
2023-04-22T15:39:28.252Z,18.17
2023-04-22T15:42:33.003Z,18.25
2023-04-22T15:45:37.901Z,18.28
2023-04-22T15:48:47.104Z,18.06
2023-04-22T15:51:51.864Z,18.08
2023-04-22T15:54:57.947Z,17.99
2023-04-22T15:58:02.716Z,17.89
2023-04-22T16:01:18.870Z,17.97
2023-04-22T16:04:25.073Z,17.85
2023-04-22T16:07:29.848Z,17.77
2023-04-22T16:10:35.968Z,17.61
2023-04-22T16:13:40.676Z,17.68
2023-04-22T16:16:45.881Z,17.68
2023-04-22T16:19:50.609Z,17.68
2023-04-22T16:22:55.304Z,17.58
2023-04-22T16:26:02.786Z,17.56
2023-04-22T16:29:07.609Z,17.44
2023-04-22T16:32:12.433Z,17.29
2023-04-22T16:35:17.129Z,17.08
2023-04-22T16:38:21.801Z,17.04
2023-04-22T16:41:28.027Z,16.96
2023-04-22T16:44:32.745Z,16.99
2023-04-22T16:47:37.566Z,16.89
2023-04-22T16:50:42.341Z,16.81
2023-04-22T16:53:47.283Z,16.51
2023-04-22T16:56:53.333Z,16.41
2023-04-22T16:59:57.792Z,16.53
2023-04-22T17:03:02.753Z,16.39
2023-04-22T17:06:08.160Z,16.44
2023-04-22T17:09:14.305Z,16.30
2023-04-22T17:12:20.367Z,16.23
2023-04-22T17:15:25.037Z,16.07
2023-04-22T17:18:29.875Z,15.99
2023-04-22T17:21:35.418Z,15.94
2023-04-22T17:24:40.027Z,15.93
2023-04-22T17:27:46.114Z,15.98
2023-04-22T17:30:50.840Z,15.85
2023-04-22T17:33:55.539Z,15.77
2023-04-22T17:37:00.284Z,15.67
2023-04-22T17:40:05.281Z,15.56
2023-04-22T17:43:13.488Z,15.62
2023-04-22T17:46:18.321Z,15.69
2023-04-22T17:49:23.157Z,15.35
2023-04-22T17:52:27.910Z,15.16
2023-04-22T17:55:35.265Z,15.39
2023-04-22T17:58:41.470Z,15.12
2023-04-22T18:01:46.269Z,15.06
2023-04-22T18:04:50.978Z,15.06
2023-04-22T18:07:58.301Z,14.89
2023-04-22T18:11:03.254Z,14.81
2023-04-22T18:14:09.392Z,14.77
2023-04-22T18:17:14.681Z,14.82
2023-04-22T18:20:19.828Z,14.63
2023-04-22T18:23:25.415Z,14.60
2023-04-22T18:26:31.615Z,14.54
2023-04-22T18:29:38.127Z,14.55
2023-04-22T18:32:43.202Z,14.34
2023-04-22T18:35:47.920Z,14.30
2023-04-22T18:38:53.445Z,14.29
2023-04-22T18:41:58.195Z,14.20
2023-04-22T18:45:05.067Z,14.09
2023-04-22T18:48:12.350Z,13.92
2023-04-22T18:51:17.194Z,13.75
2023-04-22T18:54:21.812Z,13.80
2023-04-22T18:57:26.564Z,13.53
2023-04-22T19:00:32.731Z,13.42
2023-04-22T19:03:37.508Z,13.29
2023-04-22T19:06:42.187Z,13.50
2023-04-22T19:09:46.935Z,13.64
2023-04-22T19:12:51.660Z,13.28
2023-04-22T19:15:57.789Z,13.45
2023-04-22T19:19:02.758Z,13.42
2023-04-22T19:22:07.768Z,13.29
2023-04-22T19:25:13.000Z,13.14
2023-04-22T19:28:17.633Z,13.11
2023-04-22T19:31:23.737Z,13.05
2023-04-22T19:34:28.763Z,13.04
2023-04-22T19:37:34.095Z,13.07
2023-04-22T19:40:38.836Z,12.97
2023-04-22T19:43:43.559Z,12.89
2023-04-22T19:46:49.842Z,12.90
2023-04-22T19:49:54.982Z,12.98
2023-04-22T19:53:02.916Z,12.80
2023-04-22T19:56:07.709Z,12.70
2023-04-22T19:59:13.516Z,12.74
2023-04-22T20:02:19.946Z,12.57
2023-04-22T20:05:25.506Z,12.65
2023-04-22T20:08:30.863Z,12.60
2023-04-22T20:11:35.801Z,12.48
2023-04-22T20:14:40.736Z,12.60
2023-04-22T20:17:47.241Z,12.62
2023-04-22T20:20:53.323Z,12.55
2023-04-22T20:23:58.178Z,12.35
2023-04-22T20:27:02.855Z,12.52
2023-04-22T20:30:08.641Z,12.38
2023-04-22T20:33:18.076Z,12.40
2023-04-22T20:36:24.241Z,12.36
2023-04-22T20:39:29.010Z,12.37
2023-04-22T20:42:33.810Z,12.39
2023-04-22T20:45:38.498Z,12.30
2023-04-22T20:48:44.692Z,12.40
2023-04-22T20:51:51.179Z,12.29
2023-04-22T20:54:56.621Z,12.37
2023-04-22T20:58:01.712Z,12.27
2023-04-22T21:01:06.542Z,12.28
2023-04-22T21:04:14.479Z,12.27
2023-04-22T21:07:20.448Z,12.27
2023-04-22T21:10:25.450Z,12.34
2023-04-22T21:13:30.394Z,12.25
2023-04-22T21:16:35.110Z,12.31
2023-04-22T21:19:41.173Z,12.22
2023-04-22T21:22:45.814Z,12.08
2023-04-22T21:25:51.582Z,12.00
2023-04-22T21:28:57.893Z,11.92
2023-04-22T21:32:09.484Z,11.86
2023-04-22T21:35:16.054Z,11.82
2023-04-22T21:38:20.827Z,11.80
2023-04-22T21:41:25.557Z,11.85
2023-04-22T21:44:30.252Z,11.69
2023-04-22T21:47:35.236Z,11.77
2023-04-22T21:50:41.407Z,11.73
2023-04-22T21:53:46.167Z,11.62
2023-04-22T21:56:50.932Z,11.50
2023-04-22T21:59:55.607Z,11.64
2023-04-22T22:03:00.629Z,11.44
2023-04-22T22:06:07.552Z,11.38
2023-04-22T22:09:12.469Z,11.36
2023-04-22T22:12:17.489Z,11.35
2023-04-22T22:15:22.306Z,11.19
2023-04-22T22:18:27.174Z,11.29
2023-04-22T22:21:33.916Z,11.42
2023-04-22T22:24:39.022Z,11.38
2023-04-22T22:27:47.105Z,11.29
2023-04-22T22:30:51.946Z,11.23
2023-04-22T22:33:57.508Z,11.15
2023-04-22T22:37:03.508Z,11.01
2023-04-22T22:40:09.795Z,11.02
2023-04-22T22:43:14.510Z,11.10
2023-04-22T22:46:19.240Z,11.06
2023-04-22T22:49:25.092Z,10.87
2023-04-22T22:52:32.237Z,10.86
2023-04-22T22:55:37.002Z,10.86
2023-04-22T22:58:41.720Z,11.02
2023-04-22T23:01:46.467Z,10.88
2023-04-22T23:04:51.337Z,10.69
2023-04-22T23:07:57.550Z,10.69
2023-04-22T23:11:02.393Z,10.72
2023-04-22T23:14:09.661Z,10.75
2023-04-22T23:17:17.233Z,10.62
2023-04-22T23:20:21.918Z,10.71
2023-04-22T23:23:28.028Z,10.69
2023-04-22T23:26:33.007Z,10.57
2023-04-22T23:29:38.764Z,10.32
2023-04-22T23:32:44.236Z,10.40
2023-04-22T23:35:49.015Z,10.18
2023-04-22T23:38:57.757Z,10.27
2023-04-22T23:42:02.735Z,10.32
2023-04-22T23:45:08.059Z,10.21
2023-04-22T23:48:12.925Z,10.08
2023-04-22T23:51:18.068Z,10.16
2023-04-22T23:54:24.402Z,10.08
2023-04-22T23:57:29.457Z,9.82
